createdAt,value
2019-05-29T00:02:43.160Z,3.00
2019-05-29T00:07:54.950Z,2.33
2019-05-29T00:13:01.581Z,3.67
2019-05-29T00:18:08.329Z,3.67
2019-05-29T00:23:18.839Z,3.13
2019-05-29T00:28:26.571Z,2.70
2019-05-29T00:33:35.737Z,2.17
2019-05-29T00:38:43.008Z,3.07
2019-05-29T00:43:48.784Z,5.17
2019-05-29T00:48:56.747Z,4.80
2019-05-29T00:54:05.487Z,2.93
2019-05-29T00:59:13.558Z,3.50
2019-05-29T01:04:20.763Z,6.93
2019-05-29T01:09:30.776Z,2.17
2019-05-29T01:14:49.616Z,2.50
2019-05-29T01:19:52.100Z,4.10
2019-05-29T01:25:01.916Z,3.90
2019-05-29T01:30:11.493Z,3.97
2019-05-29T01:35:19.927Z,3.33
2019-05-29T01:40:32.752Z,2.87
2019-05-29T01:45:44.760Z,2.60
2019-05-29T01:50:52.568Z,2.80
2019-05-29T01:56:00.927Z,6.47
2019-05-29T02:01:10.631Z,2.98
2019-05-29T02:06:17.850Z,4.37
2019-05-29T02:11:25.475Z,4.33
2019-05-29T02:16:33.622Z,4.57
2019-05-29T02:21:41.383Z,2.33
2019-05-29T02:26:49.970Z,3.13
2019-05-29T02:31:56.197Z,2.00
2019-05-29T02:37:05.887Z,4.17
2019-05-29T02:42:12.619Z,6.33
2019-05-29T02:47:23.656Z,2.30
2019-05-29T02:52:36.252Z,2.70
2019-05-29T02:57:55.098Z,3.90
2019-05-29T03:03:01.415Z,4.37
2019-05-29T03:08:10.205Z,3.67
2019-05-29T03:13:16.017Z,2.60
2019-05-29T03:18:27.917Z,2.23
2019-05-29T03:23:36.712Z,2.33
2019-05-29T03:28:48.625Z,2.83
2019-05-29T03:33:59.484Z,1.93
2019-05-29T03:39:09.115Z,2.23
2019-05-29T03:44:16.308Z,2.23
2019-05-29T03:49:26.818Z,2.37
2019-05-29T03:54:35.342Z,2.40
2019-05-29T03:59:43.618Z,1.87
2019-05-29T04:04:49.524Z,3.30
2019-05-29T04:09:55.799Z,1.97
2019-05-29T04:15:04.727Z,2.10
2019-05-29T04:20:15.145Z,1.77
2019-05-29T04:25:24.364Z,2.90
2019-05-29T04:30:34.186Z,5.27
2019-05-29T04:35:43.774Z,2.17
2019-05-29T04:40:50.919Z,2.40
2019-05-29T04:45:57.144Z,4.07
2019-05-29T04:51:07.773Z,5.53
2019-05-29T04:56:16.441Z,3.87
2019-05-29T05:01:22.301Z,3.63
2019-05-29T05:06:31.519Z,3.27
2019-05-29T05:11:40.471Z,2.70
2019-05-29T05:16:51.742Z,3.63
2019-05-29T05:22:00.733Z,6.47
2019-05-29T05:27:08.574Z,4.67
2019-05-29T05:32:16.137Z,4.73
2019-05-29T05:37:22.942Z,5.03
2019-05-29T05:42:31.142Z,4.23
2019-05-29T05:47:50.098Z,6.63
2019-05-29T05:52:46.527Z,7.53
2019-05-29T05:57:52.525Z,8.33
2019-05-29T06:03:01.283Z,3.60
2019-05-29T06:08:07.934Z,3.53
2019-05-29T06:13:15.680Z,5.23
2019-05-29T06:18:26.212Z,3.83
2019-05-29T06:23:36.999Z,4.37
2019-05-29T06:28:45.539Z,5.73
2019-05-29T06:33:56.098Z,2.20
2019-05-29T06:39:07.074Z,3.47
2019-05-29T06:44:20.187Z,2.97
2019-05-29T06:49:31.449Z,3.23
2019-05-29T06:54:44.155Z,2.87
2019-05-29T06:59:52.885Z,4.80
2019-05-29T07:05:02.461Z,3.60
2019-05-29T07:10:14.117Z,3.00
2019-05-29T07:15:22.272Z,2.50
2019-05-29T07:20:28.157Z,4.40
2019-05-29T07:25:38.724Z,3.20
2019-05-29T07:30:59.438Z,3.40
2019-05-29T07:36:01.373Z,3.70
2019-05-29T07:41:08.795Z,4.10
2019-05-29T07:46:17.180Z,6.00
2019-05-29T07:51:26.790Z,3.27
2019-05-29T07:56:36.688Z,3.50
2019-05-29T08:01:47.871Z,3.07
2019-05-29T08:06:57.408Z,5.23
2019-05-29T08:12:05.605Z,2.77
2019-05-29T08:17:11.089Z,6.27
2019-05-29T08:22:33.267Z,4.03
2019-05-29T08:27:31.688Z,3.20
2019-05-29T08:32:38.303Z,2.87
2019-05-29T08:37:44.961Z,2.57
2019-05-29T08:42:57.990Z,3.63
2019-05-29T08:48:07.730Z,2.23
2019-05-29T08:53:17.409Z,1.40
2019-05-29T08:58:25.050Z,1.93
2019-05-29T09:03:33.896Z,2.70
2019-05-29T09:08:43.729Z,4.95
2019-05-29T09:13:54.979Z,5.17
2019-05-29T09:19:04.667Z,4.28
2019-05-29T09:24:16.349Z,4.28
2019-05-29T09:29:31.095Z,3.42
2019-05-29T09:34:39.990Z,2.52
2019-05-29T09:39:49.959Z,1.67
2019-05-29T09:44:59.017Z,3.65
2019-05-29T09:50:09.314Z,2.67
2019-05-29T09:55:18.232Z,2.12
2019-05-29T10:00:27.108Z,2.65
2019-05-29T10:05:43.756Z,3.83
2019-05-29T10:11:03.854Z,2.47
2019-05-29T10:16:02.894Z,2.67
2019-05-29T10:21:12.819Z,3.90
2019-05-29T10:26:22.464Z,2.75
2019-05-29T10:31:32.901Z,3.12
2019-05-29T10:36:42.369Z,3.77
2019-05-29T10:41:53.024Z,2.40
2019-05-29T10:47:02.730Z,2.10
2019-05-29T10:52:16.674Z,2.30
2019-05-29T10:57:21.776Z,3.33
2019-05-29T11:02:27.746Z,2.65
2019-05-29T11:07:35.425Z,3.35
2019-05-29T11:12:44.129Z,3.30
2019-05-29T11:17:53.232Z,1.80
2019-05-29T11:23:10.634Z,2.60
2019-05-29T11:28:18.511Z,2.77
2019-05-29T11:33:28.272Z,2.70
2019-05-29T11:39:15.116Z,3.35
2019-05-29T11:44:21.029Z,2.27
2019-05-29T11:49:30.292Z,2.90
2019-05-29T11:54:37.506Z,3.42
2019-05-29T11:59:47.457Z,2.40
2019-05-29T12:04:55.141Z,2.85
2019-05-29T12:10:05.195Z,2.20
2019-05-29T12:15:23.462Z,2.22
2019-05-29T12:20:33.888Z,2.58
2019-05-29T12:25:41.416Z,3.30
2019-05-29T12:30:49.679Z,1.95
2019-05-29T12:35:57.386Z,2.40
2019-05-29T12:41:05.386Z,3.70
2019-05-29T12:46:13.739Z,2.77
2019-05-29T12:51:23.044Z,4.25
2019-05-29T12:56:31.588Z,2.72
2019-05-29T13:01:40.766Z,3.80
2019-05-29T13:06:49.718Z,3.87
2019-05-29T13:12:04.800Z,5.08
2019-05-29T13:17:13.394Z,4.97
2019-05-29T13:22:20.006Z,3.62
2019-05-29T13:27:29.297Z,4.83
2019-05-29T13:32:36.866Z,4.20
2019-05-29T13:37:48.470Z,5.90
2019-05-29T13:43:04.417Z,5.65
2019-05-29T13:48:09.226Z,4.45
2019-05-29T13:53:16.931Z,4.37
2019-05-29T13:58:28.246Z,4.83
2019-05-29T14:03:34.996Z,4.08
2019-05-29T14:08:42.080Z,4.60
2019-05-29T14:13:49.606Z,4.00
2019-05-29T14:19:00.714Z,4.03
2019-05-29T14:24:26.731Z,4.90
2019-05-29T14:29:24.735Z,3.92
2019-05-29T14:34:32.520Z,3.75
2019-05-29T14:39:42.406Z,6.72
2019-05-29T14:44:51.532Z,3.83
2019-05-29T14:50:02.528Z,3.85
2019-05-29T14:55:18.343Z,3.65
2019-05-29T15:00:29.162Z,4.35
2019-05-29T15:05:34.533Z,3.35
2019-05-29T15:10:45.468Z,4.15
2019-05-29T15:15:54.131Z,3.50
2019-05-29T15:21:03.127Z,5.53
2019-05-29T15:26:11.702Z,3.65
2019-05-29T15:31:18.290Z,3.58
2019-05-29T15:36:24.228Z,3.42
2019-05-29T15:41:36.634Z,4.42
2019-05-29T15:46:44.388Z,5.03
2019-05-29T15:51:51.736Z,4.33
2019-05-29T15:57:02.275Z,4.10
2019-05-29T16:02:09.465Z,5.03
2019-05-29T16:07:19.432Z,5.33
2019-05-29T16:12:32.348Z,4.92
2019-05-29T16:17:43.284Z,4.45
2019-05-29T16:22:51.787Z,4.97
2019-05-29T16:28:00.917Z,5.42
2019-05-29T16:33:10.830Z,3.52
2019-05-29T16:38:19.757Z,3.45
2019-05-29T16:43:25.457Z,4.20
2019-05-29T16:48:30.704Z,2.98
2019-05-29T16:53:41.117Z,3.33
2019-05-29T16:58:54.051Z,3.37
2019-05-29T17:04:04.646Z,4.08
2019-05-29T17:09:12.483Z,5.45
2019-05-29T17:14:22.969Z,3.50
2019-05-29T17:19:30.831Z,4.45
2019-05-29T17:24:37.411Z,6.10
2019-05-29T17:29:51.141Z,3.90
2019-05-29T17:34:56.451Z,4.17
2019-05-29T17:40:08.997Z,3.95
2019-05-29T17:45:21.542Z,4.20
2019-05-29T17:50:29.156Z,5.75
2019-05-29T17:55:40.247Z,6.15
2019-05-29T18:00:46.335Z,4.87
2019-05-29T18:05:53.857Z,4.67
2019-05-29T18:11:16.968Z,4.80
2019-05-29T18:16:33.331Z,4.00
2019-05-29T18:21:39.565Z,4.65
2019-05-29T18:26:47.537Z,4.25
2019-05-29T18:31:56.418Z,4.75
2019-05-29T18:37:02.344Z,4.45
2019-05-29T18:42:10.084Z,4.45
2019-05-29T18:47:23.113Z,4.50
2019-05-29T18:52:32.720Z,4.80
2019-05-29T18:57:43.724Z,3.85
2019-05-29T19:02:51.690Z,3.50
2019-05-29T19:08:01.276Z,3.50
2019-05-29T19:13:09.950Z,4.85
2019-05-29T19:18:22.018Z,7.83
2019-05-29T19:23:29.103Z,7.33
2019-05-29T19:28:37.485Z,6.40
2019-05-29T19:33:43.527Z,5.83
2019-05-29T19:38:52.447Z,5.62
2019-05-29T19:44:04.871Z,6.55
2019-05-29T19:49:14.761Z,5.12
2019-05-29T19:54:27.433Z,5.83
2019-05-29T19:59:36.310Z,6.58
2019-05-29T20:04:46.088Z,5.65
2019-05-29T20:10:00.300Z,5.75
2019-05-29T20:15:10.487Z,5.58
2019-05-29T20:20:20.725Z,6.25
2019-05-29T20:25:28.839Z,5.40
2019-05-29T20:30:38.863Z,6.85
2019-05-29T20:35:49.629Z,6.15
2019-05-29T20:40:59.451Z,6.70
2019-05-29T20:46:11.011Z,6.40
2019-05-29T20:51:18.126Z,7.40
2019-05-29T20:56:24.150Z,6.92
2019-05-29T21:01:42.977Z,6.95
2019-05-29T21:06:45.568Z,6.92
2019-05-29T21:11:52.912Z,6.80
2019-05-29T21:17:05.873Z,6.47
2019-05-29T21:22:14.153Z,5.87
2019-05-29T21:27:29.508Z,6.17
2019-05-29T21:32:40.186Z,8.58
2019-05-29T21:37:49.368Z,7.85
2019-05-29T21:42:59.498Z,7.03
2019-05-29T21:48:10.531Z,7.20
2019-05-29T21:53:19.816Z,10.45
2019-05-29T21:58:27.328Z,9.60
2019-05-29T22:03:33.753Z,11.85
2019-05-29T22:08:47.999Z,11.45
2019-05-29T22:13:58.533Z,12.28
2019-05-29T22:19:05.889Z,13.72
2019-05-29T22:24:11.686Z,11.28
2019-05-29T22:29:22.464Z,10.60
2019-05-29T22:34:28.353Z,9.53
2019-05-29T22:39:38.685Z,9.65
2019-05-29T22:44:51.525Z,8.90
2019-05-29T22:49:58.441Z,11.45
2019-05-29T22:55:06.077Z,9.33
2019-05-29T23:00:18.776Z,10.32
2019-05-29T23:05:24.391Z,9.68
2019-05-29T23:10:29.627Z,8.68
2019-05-29T23:15:39.071Z,8.78
2019-05-29T23:20:45.621Z,7.37
2019-05-29T23:25:56.505Z,6.58
2019-05-29T23:31:06.271Z,7.92
2019-05-29T23:36:11.756Z,7.05
2019-05-29T23:41:20.057Z,6.53
2019-05-29T23:46:29.632Z,8.35
2019-05-29T23:51:38.229Z,8.78
2019-05-29T23:56:49.025Z,7.28
